sensor_id;sensor_type;location;lat;lon;timestamp;P1;durP1;ratioP1;P2;durP2;ratioP2
73980;SDS011;62348;51.412;5.436;2022-07-30T00:00:56;11.90;;;5.88;;
73980;SDS011;62348;51.412;5.436;2022-07-30T00:03:21;11.00;;;5.63;;
73980;SDS011;62348;51.412;5.436;2022-07-30T00:05:47;14.90;;;5.72;;
73980;SDS011;62348;51.412;5.436;2022-07-30T00:08:13;9.85;;;5.63;;
73980;SDS011;62348;51.412;5.436;2022-07-30T00:10:38;11.63;;;5.43;;
73980;SDS011;62348;51.412;5.436;2022-07-30T00:13:05;11.20;;;6.30;;
73980;SDS011;62348;51.412;5.436;2022-07-30T00:15:31;18.67;;;6.10;;
73980;SDS011;62348;51.412;5.436;2022-07-30T00:17:57;11.00;;;5.90;;
73980;SDS011;62348;51.412;5.436;2022-07-30T00:20:22;10.07;;;6.00;;
73980;SDS011;62348;51.412;5.436;2022-07-30T00:22:48;14.95;;;6.38;;
73980;SDS011;62348;51.412;5.436;2022-07-30T00:25:13;12.70;;;5.85;;
73980;SDS011;62348;51.412;5.436;2022-07-30T00:27:39;12.40;;;6.80;;
73980;SDS011;62348;51.412;5.436;2022-07-30T00:30:04;10.93;;;6.00;;
73980;SDS011;62348;51.412;5.436;2022-07-30T00:32:30;16.05;;;7.07;;
73980;SDS011;62348;51.412;5.436;2022-07-30T00:34:56;11.40;;;5.90;;
73980;SDS011;62348;51.412;5.436;2022-07-30T00:37:21;14.73;;;6.63;;
73980;SDS011;62348;51.412;5.436;2022-07-30T00:39:47;10.35;;;6.45;;
73980;SDS011;62348;51.412;5.436;2022-07-30T00:42:12;17.20;;;6.90;;
73980;SDS011;62348;51.412;5.436;2022-07-30T00:44:37;13.65;;;7.55;;
73980;SDS011;62348;51.412;5.436;2022-07-30T00:47:03;13.35;;;7.45;;
73980;SDS011;62348;51.412;5.436;2022-07-30T00:49:28;16.05;;;7.35;;
73980;SDS011;62348;51.412;5.436;2022-07-30T00:51:54;12.60;;;7.68;;
73980;SDS011;62348;51.412;5.436;2022-07-30T00:54:20;12.75;;;7.68;;
73980;SDS011;62348;51.412;5.436;2022-07-30T00:56:46;13.73;;;7.80;;
73980;SDS011;62348;51.412;5.436;2022-07-30T00:59:12;17.40;;;8.52;;
73980;SDS011;62348;51.412;5.436;2022-07-30T01:01:37;14.35;;;8.07;;
73980;SDS011;62348;51.412;5.436;2022-07-30T01:04:03;14.27;;;7.80;;
73980;SDS011;62348;51.412;5.436;2022-07-30T01:06:29;15.20;;;8.05;;
73980;SDS011;62348;51.412;5.436;2022-07-30T01:08:54;14.20;;;9.02;;
73980;SDS011;62348;51.412;5.436;2022-07-30T01:11:21;12.07;;;7.88;;
73980;SDS011;62348;51.412;5.436;2022-07-30T01:13:51;15.98;;;8.80;;
73980;SDS011;62348;51.412;5.436;2022-07-30T01:16:17;19.00;;;9.20;;
73980;SDS011;62348;51.412;5.436;2022-07-30T01:18:42;15.68;;;10.38;;
73980;SDS011;62348;51.412;5.436;2022-07-30T01:21:34;14.02;;;9.70;;
73980;SDS011;62348;51.412;5.436;2022-07-30T01:24:08;12.00;;;9.10;;
73980;SDS011;62348;51.412;5.436;2022-07-30T01:26:44;18.08;;;9.77;;
73980;SDS011;62348;51.412;5.436;2022-07-30T01:29:11;18.48;;;9.73;;
73980;SDS011;62348;51.412;5.436;2022-07-30T01:31:39;13.65;;;10.55;;
73980;SDS011;62348;51.412;5.436;2022-07-30T01:34:05;12.55;;;9.38;;
73980;SDS011;62348;51.412;5.436;2022-07-30T01:36:33;18.55;;;9.82;;
73980;SDS011;62348;51.412;5.436;2022-07-30T01:38:59;15.65;;;10.32;;
73980;SDS011;62348;51.412;5.436;2022-07-30T01:41:26;14.98;;;10.48;;
73980;SDS011;62348;51.412;5.436;2022-07-30T01:43:53;18.30;;;10.40;;
73980;SDS011;62348;51.412;5.436;2022-07-30T01:46:18;14.48;;;9.55;;
73980;SDS011;62348;51.412;5.436;2022-07-30T01:48:47;16.80;;;10.75;;
73980;SDS011;62348;51.412;5.436;2022-07-30T01:51:14;16.38;;;10.65;;
73980;SDS011;62348;51.412;5.436;2022-07-30T01:53:42;15.68;;;10.82;;
73980;SDS011;62348;51.412;5.436;2022-07-30T01:56:08;17.58;;;10.80;;
73980;SDS011;62348;51.412;5.436;2022-07-30T01:58:37;19.83;;;11.00;;
73980;SDS011;62348;51.412;5.436;2022-07-30T02:01:05;16.73;;;11.65;;
73980;SDS011;62348;51.412;5.436;2022-07-30T02:03:31;19.17;;;11.82;;
73980;SDS011;62348;51.412;5.436;2022-07-30T02:05:59;15.93;;;11.20;;
73980;SDS011;62348;51.412;5.436;2022-07-30T02:11:11;21.25;;;11.45;;
73980;SDS011;62348;51.412;5.436;2022-07-30T02:13:51;17.52;;;11.32;;
73980;SDS011;62348;51.412;5.436;2022-07-30T02:16:23;18.55;;;11.73;;
73980;SDS011;62348;51.412;5.436;2022-07-30T02:18:56;20.85;;;12.88;;
73980;SDS011;62348;51.412;5.436;2022-07-30T02:21:26;18.13;;;12.20;;
73980;SDS011;62348;51.412;5.436;2022-07-30T02:23:58;16.88;;;12.05;;
73980;SDS011;62348;51.412;5.436;2022-07-30T02:26:26;16.98;;;11.82;;
73980;SDS011;62348;51.412;5.436;2022-07-30T02:28:54;21.30;;;12.70;;
73980;SDS011;62348;51.412;5.436;2022-07-30T02:31:23;17.25;;;13.23;;
73980;SDS011;62348;51.412;5.436;2022-07-30T02:33:52;16.23;;;12.30;;
73980;SDS011;62348;51.412;5.436;2022-07-30T02:36:20;18.08;;;12.00;;
73980;SDS011;62348;51.412;5.436;2022-07-30T02:38:49;19.52;;;12.13;;
73980;SDS011;62348;51.412;5.436;2022-07-30T02:41:16;16.17;;;11.10;;
73980;SDS011;62348;51.412;5.436;2022-07-30T02:43:48;17.05;;;12.70;;
73980;SDS011;62348;51.412;5.436;2022-07-30T02:46:15;18.52;;;12.13;;
73980;SDS011;62348;51.412;5.436;2022-07-30T02:48:42;17.38;;;13.30;;
73980;SDS011;62348;51.412;5.436;2022-07-30T02:51:09;17.05;;;12.38;;
73980;SDS011;62348;51.412;5.436;2022-07-30T02:53:36;16.48;;;12.50;;
73980;SDS011;62348;51.412;5.436;2022-07-30T02:56:04;20.02;;;12.85;;
73980;SDS011;62348;51.412;5.436;2022-07-30T02:58:31;22.35;;;13.07;;
73980;SDS011;62348;51.412;5.436;2022-07-30T03:00:59;15.30;;;13.00;;
73980;SDS011;62348;51.412;5.436;2022-07-30T03:03:26;19.58;;;13.65;;
73980;SDS011;62348;51.412;5.436;2022-07-30T03:05:54;19.30;;;12.88;;
73980;SDS011;62348;51.412;5.436;2022-07-30T03:08:20;17.38;;;12.98;;
73980;SDS011;62348;51.412;5.436;2022-07-30T03:10:47;18.45;;;14.10;;
73980;SDS011;62348;51.412;5.436;2022-07-30T03:13:13;19.92;;;14.07;;
73980;SDS011;62348;51.412;5.436;2022-07-30T03:15:44;21.48;;;14.45;;
73980;SDS011;62348;51.412;5.436;2022-07-30T03:18:13;18.42;;;14.10;;
73980;SDS011;62348;51.412;5.436;2022-07-30T03:20:40;22.40;;;13.88;;
73980;SDS011;62348;51.412;5.436;2022-07-30T03:23:13;17.92;;;14.30;;
73980;SDS011;62348;51.412;5.436;2022-07-30T03:25:42;20.27;;;13.45;;
73980;SDS011;62348;51.412;5.436;2022-07-30T03:28:11;21.40;;;14.95;;
73980;SDS011;62348;51.412;5.436;2022-07-30T03:30:38;21.73;;;14.98;;
73980;SDS011;62348;51.412;5.436;2022-07-30T03:33:05;18.77;;;14.82;;
73980;SDS011;62348;51.412;5.436;2022-07-30T03:35:31;20.75;;;14.30;;
73980;SDS011;62348;51.412;5.436;2022-07-30T03:37:56;17.98;;;14.57;;
73980;SDS011;62348;51.412;5.436;2022-07-30T03:40:23;19.20;;;15.23;;
73980;SDS011;62348;51.412;5.436;2022-07-30T03:42:50;19.85;;;13.85;;
73980;SDS011;62348;51.412;5.436;2022-07-30T03:45:16;19.08;;;14.50;;
73980;SDS011;62348;51.412;5.436;2022-07-30T03:47:43;17.38;;;14.27;;
73980;SDS011;62348;51.412;5.436;2022-07-30T03:50:09;18.40;;;14.25;;
73980;SDS011;62348;51.412;5.436;2022-07-30T03:52:38;17.85;;;14.13;;
73980;SDS011;62348;51.412;5.436;2022-07-30T03:55:05;18.00;;;14.07;;
73980;SDS011;62348;51.412;5.436;2022-07-30T03:57:32;18.35;;;14.38;;
73980;SDS011;62348;51.412;5.436;2022-07-30T03:59:58;18.25;;;13.88;;
73980;SDS011;62348;51.412;5.436;2022-07-30T04:02:23;14.57;;;13.07;;
73980;SDS011;62348;51.412;5.436;2022-07-30T04:04:49;20.30;;;13.57;;
73980;SDS011;62348;51.412;5.436;2022-07-30T04:07:14;19.40;;;14.70;;
73980;SDS011;62348;51.412;5.436;2022-07-30T04:09:39;19.48;;;14.38;;
73980;SDS011;62348;51.412;5.436;2022-07-30T04:12:05;17.45;;;14.48;;
73980;SDS011;62348;51.412;5.436;2022-07-30T04:14:40;27.17;;;15.40;;
73980;SDS011;62348;51.412;5.436;2022-07-30T04:17:12;20.55;;;14.77;;
73980;SDS011;62348;51.412;5.436;2022-07-30T04:19:47;20.58;;;15.25;;
73980;SDS011;62348;51.412;5.436;2022-07-30T04:22:26;26.00;;;16.92;;
73980;SDS011;62348;51.412;5.436;2022-07-30T04:24:54;22.48;;;16.92;;
73980;SDS011;62348;51.412;5.436;2022-07-30T04:27:21;23.92;;;15.55;;
73980;SDS011;62348;51.412;5.436;2022-07-30T04:29:49;18.45;;;15.40;;
73980;SDS011;62348;51.412;5.436;2022-07-30T04:32:15;23.15;;;16.35;;
73980;SDS011;62348;51.412;5.436;2022-07-30T04:34:46;24.05;;;17.08;;
73980;SDS011;62348;51.412;5.436;2022-07-30T04:37:18;21.60;;;16.15;;
73980;SDS011;62348;51.412;5.436;2022-07-30T04:39:45;23.52;;;15.90;;
73980;SDS011;62348;51.412;5.436;2022-07-30T04:42:14;23.00;;;15.80;;
73980;SDS011;62348;51.412;5.436;2022-07-30T04:44:40;17.05;;;15.25;;
73980;SDS011;62348;51.412;5.436;2022-07-30T04:47:05;18.20;;;15.70;;
73980;SDS011;62348;51.412;5.436;2022-07-30T04:49:30;18.98;;;15.23;;
73980;SDS011;62348;51.412;5.436;2022-07-30T04:51:57;21.67;;;15.07;;
73980;SDS011;62348;51.412;5.436;2022-07-30T04:54:23;19.33;;;14.43;;
73980;SDS011;62348;51.412;5.436;2022-07-30T04:56:50;19.63;;;16.40;;
73980;SDS011;62348;51.412;5.436;2022-07-30T04:59:17;21.88;;;14.68;;
73980;SDS011;62348;51.412;5.436;2022-07-30T05:01:46;17.92;;;14.32;;
73980;SDS011;62348;51.412;5.436;2022-07-30T05:04:14;17.17;;;13.98;;
73980;SDS011;62348;51.412;5.436;2022-07-30T05:06:41;18.15;;;13.82;;
73980;SDS011;62348;51.412;5.436;2022-07-30T05:09:08;20.35;;;13.93;;
73980;SDS011;62348;51.412;5.436;2022-07-30T05:11:34;21.67;;;14.57;;
73980;SDS011;62348;51.412;5.436;2022-07-30T05:13:59;18.27;;;13.40;;
73980;SDS011;62348;51.412;5.436;2022-07-30T05:16:25;18.02;;;13.48;;
73980;SDS011;62348;51.412;5.436;2022-07-30T05:18:50;16.80;;;13.27;;
73980;SDS011;62348;51.412;5.436;2022-07-30T05:21:16;21.40;;;14.80;;
73980;SDS011;62348;51.412;5.436;2022-07-30T05:23:41;20.13;;;13.68;;
73980;SDS011;62348;51.412;5.436;2022-07-30T05:26:06;20.13;;;13.75;;
73980;SDS011;62348;51.412;5.436;2022-07-30T05:28:32;17.17;;;13.52;;
73980;SDS011;62348;51.412;5.436;2022-07-30T05:30:57;15.23;;;12.85;;
73980;SDS011;62348;51.412;5.436;2022-07-30T05:33:23;16.17;;;13.27;;
73980;SDS011;62348;51.412;5.436;2022-07-30T05:35:49;14.90;;;13.27;;
73980;SDS011;62348;51.412;5.436;2022-07-30T05:38:14;19.05;;;13.32;;
73980;SDS011;62348;51.412;5.436;2022-07-30T05:40:41;17.83;;;13.48;;
73980;SDS011;62348;51.412;5.436;2022-07-30T05:43:06;17.67;;;13.07;;
73980;SDS011;62348;51.412;5.436;2022-07-30T05:45:32;21.77;;;12.98;;
73980;SDS011;62348;51.412;5.436;2022-07-30T05:47:58;18.45;;;13.18;;
73980;SDS011;62348;51.412;5.436;2022-07-30T05:50:23;18.73;;;13.10;;
73980;SDS011;62348;51.412;5.436;2022-07-30T05:52:48;22.30;;;13.18;;
73980;SDS011;62348;51.412;5.436;2022-07-30T05:55:14;20.58;;;13.48;;
73980;SDS011;62348;51.412;5.436;2022-07-30T05:57:39;20.42;;;13.00;;
73980;SDS011;62348;51.412;5.436;2022-07-30T06:00:09;19.00;;;13.65;;
73980;SDS011;62348;51.412;5.436;2022-07-30T06:02:36;15.77;;;12.73;;
73980;SDS011;62348;51.412;5.436;2022-07-30T06:05:03;21.08;;;12.40;;
73980;SDS011;62348;51.412;5.436;2022-07-30T06:07:29;17.38;;;12.77;;
73980;SDS011;62348;51.412;5.436;2022-07-30T06:09:54;17.80;;;11.75;;
73980;SDS011;62348;51.412;5.436;2022-07-30T06:12:24;16.88;;;11.07;;
73980;SDS011;62348;51.412;5.436;2022-07-30T06:14:50;15.43;;;10.30;;
73980;SDS011;62348;51.412;5.436;2022-07-30T06:17:16;14.75;;;10.43;;
73980;SDS011;62348;51.412;5.436;2022-07-30T06:19:41;19.48;;;11.60;;
73980;SDS011;62348;51.412;5.436;2022-07-30T06:22:06;15.45;;;11.27;;
73980;SDS011;62348;51.412;5.436;2022-07-30T06:24:32;14.27;;;10.60;;
73980;SDS011;62348;51.412;5.436;2022-07-30T06:26:58;13.07;;;10.80;;
73980;SDS011;62348;51.412;5.436;2022-07-30T06:29:23;15.43;;;10.27;;
73980;SDS011;62348;51.412;5.436;2022-07-30T06:31:49;16.10;;;9.90;;
73980;SDS011;62348;51.412;5.436;2022-07-30T06:34:14;17.35;;;10.35;;
73980;SDS011;62348;51.412;5.436;2022-07-30T06:36:39;15.05;;;8.57;;
73980;SDS011;62348;51.412;5.436;2022-07-30T06:39:05;15.07;;;8.32;;
73980;SDS011;62348;51.412;5.436;2022-07-30T06:41:30;12.68;;;8.25;;
73980;SDS011;62348;51.412;5.436;2022-07-30T06:43:55;11.45;;;6.82;;
73980;SDS011;62348;51.412;5.436;2022-07-30T06:46:21;15.82;;;7.03;;
73980;SDS011;62348;51.412;5.436;2022-07-30T06:48:46;11.82;;;7.28;;
73980;SDS011;62348;51.412;5.436;2022-07-30T06:51:12;11.93;;;7.65;;
73980;SDS011;62348;51.412;5.436;2022-07-30T06:53:37;10.68;;;7.80;;
73980;SDS011;62348;51.412;5.436;2022-07-30T06:56:02;12.65;;;7.40;;
73980;SDS011;62348;51.412;5.436;2022-07-30T06:58:28;13.75;;;7.32;;
73980;SDS011;62348;51.412;5.436;2022-07-30T07:00:53;11.05;;;7.20;;
73980;SDS011;62348;51.412;5.436;2022-07-30T07:03:19;9.00;;;6.57;;
73980;SDS011;62348;51.412;5.436;2022-07-30T07:05:45;12.82;;;6.05;;
73980;SDS011;62348;51.412;5.436;2022-07-30T07:08:10;9.73;;;6.50;;
73980;SDS011;62348;51.412;5.436;2022-07-30T07:10:36;11.15;;;5.70;;
73980;SDS011;62348;51.412;5.436;2022-07-30T07:13:01;10.80;;;6.53;;
73980;SDS011;62348;51.412;5.436;2022-07-30T07:15:27;8.57;;;4.97;;
73980;SDS011;62348;51.412;5.436;2022-07-30T07:17:52;11.73;;;5.32;;
73980;SDS011;62348;51.412;5.436;2022-07-30T07:20:18;6.20;;;4.60;;
73980;SDS011;62348;51.412;5.436;2022-07-30T07:22:43;8.07;;;4.05;;
73980;SDS011;62348;51.412;5.436;2022-07-30T07:25:08;8.07;;;4.60;;
73980;SDS011;62348;51.412;5.436;2022-07-30T07:27:35;9.07;;;4.72;;
73980;SDS011;62348;51.412;5.436;2022-07-30T07:30:01;6.88;;;4.07;;
73980;SDS011;62348;51.412;5.436;2022-07-30T07:32:27;8.40;;;4.82;;
73980;SDS011;62348;51.412;5.436;2022-07-30T07:34:52;9.02;;;4.20;;
73980;SDS011;62348;51.412;5.436;2022-07-30T07:37:18;9.80;;;4.50;;
73980;SDS011;62348;51.412;5.436;2022-07-30T07:39:43;6.95;;;4.65;;
73980;SDS011;62348;51.412;5.436;2022-07-30T07:42:08;9.10;;;4.93;;
73980;SDS011;62348;51.412;5.436;2022-07-30T07:44:34;12.00;;;4.38;;
73980;SDS011;62348;51.412;5.436;2022-07-30T07:46:59;6.85;;;4.20;;
73980;SDS011;62348;51.412;5.436;2022-07-30T07:49:25;6.32;;;4.47;;
73980;SDS011;62348;51.412;5.436;2022-07-30T07:51:50;7.43;;;4.78;;
73980;SDS011;62348;51.412;5.436;2022-07-30T07:54:15;10.82;;;4.65;;
73980;SDS011;62348;51.412;5.436;2022-07-30T07:56:41;9.57;;;5.65;;
73980;SDS011;62348;51.412;5.436;2022-07-30T07:59:06;9.52;;;5.90;;
73980;SDS011;62348;51.412;5.436;2022-07-30T08:01:32;11.43;;;6.18;;
73980;SDS011;62348;51.412;5.436;2022-07-30T08:03:58;8.73;;;6.05;;
73980;SDS011;62348;51.412;5.436;2022-07-30T08:06:24;9.35;;;5.82;;
73980;SDS011;62348;51.412;5.436;2022-07-30T08:08:49;10.48;;;5.80;;
73980;SDS011;62348;51.412;5.436;2022-07-30T08:11:14;8.35;;;5.78;;
73980;SDS011;62348;51.412;5.436;2022-07-30T08:13:40;8.52;;;6.00;;
73980;SDS011;62348;51.412;5.436;2022-07-30T08:16:05;8.65;;;5.10;;
73980;SDS011;62348;51.412;5.436;2022-07-30T08:18:34;6.90;;;3.53;;
73980;SDS011;62348;51.412;5.436;2022-07-30T08:21:00;8.52;;;3.65;;
73980;SDS011;62348;51.412;5.436;2022-07-30T08:23:26;8.07;;;4.10;;
73980;SDS011;62348;51.412;5.436;2022-07-30T08:25:51;5.57;;;3.50;;
73980;SDS011;62348;51.412;5.436;2022-07-30T08:28:17;5.20;;;3.65;;
73980;SDS011;62348;51.412;5.436;2022-07-30T08:30:42;6.75;;;4.47;;
73980;SDS011;62348;51.412;5.436;2022-07-30T08:33:08;7.82;;;3.60;;
73980;SDS011;62348;51.412;5.436;2022-07-30T08:35:33;6.68;;;3.78;;
73980;SDS011;62348;51.412;5.436;2022-07-30T08:37:59;8.02;;;4.22;;
73980;SDS011;62348;51.412;5.436;2022-07-30T08:40:24;5.00;;;4.05;;
73980;SDS011;62348;51.412;5.436;2022-07-30T08:42:51;6.38;;;3.60;;
73980;SDS011;62348;51.412;5.436;2022-07-30T08:45:17;6.47;;;3.35;;
73980;SDS011;62348;51.412;5.436;2022-07-30T08:47:43;6.60;;;2.83;;
73980;SDS011;62348;51.412;5.436;2022-07-30T08:50:10;7.95;;;3.20;;
73980;SDS011;62348;51.412;5.436;2022-07-30T08:52:37;4.82;;;3.13;;
73980;SDS011;62348;51.412;5.436;2022-07-30T08:55:05;6.80;;;3.25;;
73980;SDS011;62348;51.412;5.436;2022-07-30T08:57:35;6.97;;;3.50;;
73980;SDS011;62348;51.412;5.436;2022-07-30T09:00:03;8.70;;;3.40;;
73980;SDS011;62348;51.412;5.436;2022-07-30T09:02:31;7.13;;;3.40;;
73980;SDS011;62348;51.412;5.436;2022-07-30T09:04:56;5.38;;;3.25;;
73980;SDS011;62348;51.412;5.436;2022-07-30T09:07:22;6.05;;;3.13;;
73980;SDS011;62348;51.412;5.436;2022-07-30T09:09:48;3.80;;;2.63;;
73980;SDS011;62348;51.412;5.436;2022-07-30T09:15:04;5.07;;;2.88;;
73980;SDS011;62348;51.412;5.436;2022-07-30T09:17:46;4.78;;;2.88;;
73980;SDS011;62348;51.412;5.436;2022-07-30T09:20:30;4.07;;;3.30;;
73980;SDS011;62348;51.412;5.436;2022-07-30T09:22:58;8.47;;;4.07;;
73980;SDS011;62348;51.412;5.436;2022-07-30T09:25:35;7.75;;;2.95;;
73980;SDS011;62348;51.412;5.436;2022-07-30T09:28:05;8.15;;;3.35;;
73980;SDS011;62348;51.412;5.436;2022-07-30T09:30:54;4.95;;;3.20;;
73980;SDS011;62348;51.412;5.436;2022-07-30T09:36:05;4.38;;;3.00;;
73980;SDS011;62348;51.412;5.436;2022-07-30T09:41:09;7.53;;;3.70;;
73980;SDS011;62348;51.412;5.436;2022-07-30T09:43:46;9.63;;;3.83;;
73980;SDS011;62348;51.412;5.436;2022-07-30T09:46:12;6.68;;;3.47;;
73980;SDS011;62348;51.412;5.436;2022-07-30T09:48:37;3.88;;;3.10;;
73980;SDS011;62348;51.412;5.436;2022-07-30T09:51:03;6.82;;;3.13;;
73980;SDS011;62348;51.412;5.436;2022-07-30T09:53:29;7.40;;;4.07;;
73980;SDS011;62348;51.412;5.436;2022-07-30T09:55:56;8.80;;;3.58;;
73980;SDS011;62348;51.412;5.436;2022-07-30T09:58:23;5.65;;;3.90;;
73980;SDS011;62348;51.412;5.436;2022-07-30T10:01:01;5.10;;;4.10;;
73980;SDS011;62348;51.412;5.436;2022-07-30T10:03:26;7.47;;;4.03;;
73980;SDS011;62348;51.412;5.436;2022-07-30T10:05:52;4.32;;;3.80;;
73980;SDS011;62348;51.412;5.436;2022-07-30T10:08:38;6.75;;;3.60;;
73980;SDS011;62348;51.412;5.436;2022-07-30T10:11:12;7.65;;;3.63;;
73980;SDS011;62348;51.412;5.436;2022-07-30T10:13:42;8.50;;;3.10;;
73980;SDS011;62348;51.412;5.436;2022-07-30T10:16:08;5.68;;;3.38;;
73980;SDS011;62348;51.412;5.436;2022-07-30T10:18:34;5.78;;;3.58;;
73980;SDS011;62348;51.412;5.436;2022-07-30T10:21:01;4.93;;;2.55;;
73980;SDS011;62348;51.412;5.436;2022-07-30T10:23:28;6.60;;;3.05;;
73980;SDS011;62348;51.412;5.436;2022-07-30T10:25:55;6.25;;;2.70;;
73980;SDS011;62348;51.412;5.436;2022-07-30T10:28:24;7.22;;;3.10;;
73980;SDS011;62348;51.412;5.436;2022-07-30T10:30:54;5.47;;;2.38;;
73980;SDS011;62348;51.412;5.436;2022-07-30T10:33:21;5.25;;;2.35;;
73980;SDS011;62348;51.412;5.436;2022-07-30T10:35:49;5.50;;;2.55;;
73980;SDS011;62348;51.412;5.436;2022-07-30T10:38:14;4.72;;;2.17;;
73980;SDS011;62348;51.412;5.436;2022-07-30T10:48:50;5.28;;;2.83;;
73980;SDS011;62348;51.412;5.436;2022-07-30T10:51:15;3.97;;;2.20;;
73980;SDS011;62348;51.412;5.436;2022-07-30T10:53:44;5.32;;;2.10;;
73980;SDS011;62348;51.412;5.436;2022-07-30T10:59:00;6.28;;;2.80;;
73980;SDS011;62348;51.412;5.436;2022-07-30T11:02:34;5.38;;;2.03;;
73980;SDS011;62348;51.412;5.436;2022-07-30T11:04:32;3.28;;;1.90;;
73980;SDS011;62348;51.412;5.436;2022-07-30T11:09:45;4.30;;;2.10;;
73980;SDS011;62348;51.412;5.436;2022-07-30T11:12:10;3.67;;;2.22;;
73980;SDS011;62348;51.412;5.436;2022-07-30T11:17:14;7.35;;;1.90;;
73980;SDS011;62348;51.412;5.436;2022-07-30T11:22:33;4.05;;;2.08;;
73980;SDS011;62348;51.412;5.436;2022-07-30T11:25:08;5.28;;;1.75;;
73980;SDS011;62348;51.412;5.436;2022-07-30T11:27:54;5.25;;;2.17;;
73980;SDS011;62348;51.412;5.436;2022-07-30T11:32:46;4.82;;;1.67;;
73980;SDS011;62348;51.412;5.436;2022-07-30T11:35:14;8.40;;;2.88;;
73980;SDS011;62348;51.412;5.436;2022-07-30T11:38:26;4.53;;;1.98;;
73980;SDS011;62348;51.412;5.436;2022-07-30T11:43:20;6.18;;;2.13;;
73980;SDS011;62348;51.412;5.436;2022-07-30T11:45:54;2.53;;;1.88;;
73980;SDS011;62348;51.412;5.436;2022-07-30T11:49:02;3.28;;;1.80;;
73980;SDS011;62348;51.412;5.436;2022-07-30T11:54:23;4.65;;;2.10;;
73980;SDS011;62348;51.412;5.436;2022-07-30T11:56:54;5.45;;;2.35;;
73980;SDS011;62348;51.412;5.436;2022-07-30T11:59:23;4.53;;;2.30;;
73980;SDS011;62348;51.412;5.436;2022-07-30T12:01:52;5.40;;;2.05;;
73980;SDS011;62348;51.412;5.436;2022-07-30T12:04:21;3.58;;;1.90;;
73980;SDS011;62348;51.412;5.436;2022-07-30T12:06:48;2.97;;;2.08;;
73980;SDS011;62348;51.412;5.436;2022-07-30T12:09:20;5.45;;;1.80;;
73980;SDS011;62348;51.412;5.436;2022-07-30T12:11:47;4.53;;;2.47;;
73980;SDS011;62348;51.412;5.436;2022-07-30T12:14:12;6.60;;;2.20;;
73980;SDS011;62348;51.412;5.436;2022-07-30T12:16:38;5.00;;;2.35;;
73980;SDS011;62348;51.412;5.436;2022-07-30T12:19:05;3.78;;;2.40;;
73980;SDS011;62348;51.412;5.436;2022-07-30T12:21:30;3.28;;;1.92;;
73980;SDS011;62348;51.412;5.436;2022-07-30T12:24:00;5.28;;;1.80;;
73980;SDS011;62348;51.412;5.436;2022-07-30T12:26:29;4.63;;;2.67;;
73980;SDS011;62348;51.412;5.436;2022-07-30T12:28:56;4.20;;;2.00;;
73980;SDS011;62348;51.412;5.436;2022-07-30T12:31:23;4.35;;;2.20;;
73980;SDS011;62348;51.412;5.436;2022-07-30T12:33:49;6.32;;;2.10;;
73980;SDS011;62348;51.412;5.436;2022-07-30T12:38:53;3.10;;;1.92;;
73980;SDS011;62348;51.412;5.436;2022-07-30T12:41:20;2.50;;;1.83;;
73980;SDS011;62348;51.412;5.436;2022-07-30T12:43:48;4.03;;;1.98;;
73980;SDS011;62348;51.412;5.436;2022-07-30T12:46:23;3.95;;;1.90;;
73980;SDS011;62348;51.412;5.436;2022-07-30T12:48:56;6.00;;;1.95;;
73980;SDS011;62348;51.412;5.436;2022-07-30T12:51:34;5.38;;;2.20;;
73980;SDS011;62348;51.412;5.436;2022-07-30T12:54:16;6.30;;;1.92;;
73980;SDS011;62348;51.412;5.436;2022-07-30T12:56:56;7.82;;;1.85;;
73980;SDS011;62348;51.412;5.436;2022-07-30T12:59:27;2.53;;;2.10;;
73980;SDS011;62348;51.412;5.436;2022-07-30T13:01:53;4.60;;;1.83;;
73980;SDS011;62348;51.412;5.436;2022-07-30T13:04:21;4.75;;;1.90;;
73980;SDS011;62348;51.412;5.436;2022-07-30T13:09:33;3.30;;;2.30;;
73980;SDS011;62348;51.412;5.436;2022-07-30T13:11:58;4.03;;;2.20;;
73980;SDS011;62348;51.412;5.436;2022-07-30T13:14:24;4.38;;;2.15;;
73980;SDS011;62348;51.412;5.436;2022-07-30T13:16:49;5.32;;;2.25;;
73980;SDS011;62348;51.412;5.436;2022-07-30T13:19:18;5.63;;;2.83;;
73980;SDS011;62348;51.412;5.436;2022-07-30T13:21:43;5.78;;;2.53;;
73980;SDS011;62348;51.412;5.436;2022-07-30T13:24:09;4.25;;;2.58;;
73980;SDS011;62348;51.412;5.436;2022-07-30T13:26:36;3.72;;;2.30;;
73980;SDS011;62348;51.412;5.436;2022-07-30T13:29:01;4.13;;;2.47;;
73980;SDS011;62348;51.412;5.436;2022-07-30T13:31:27;6.93;;;2.47;;
73980;SDS011;62348;51.412;5.436;2022-07-30T13:33:52;5.93;;;2.10;;
73980;SDS011;62348;51.412;5.436;2022-07-30T13:36:18;4.60;;;2.45;;
73980;SDS011;62348;51.412;5.436;2022-07-30T13:38:44;4.65;;;1.88;;
73980;SDS011;62348;51.412;5.436;2022-07-30T13:41:10;3.42;;;2.03;;
73980;SDS011;62348;51.412;5.436;2022-07-30T13:43:36;8.07;;;3.22;;
73980;SDS011;62348;51.412;5.436;2022-07-30T13:46:02;4.50;;;2.05;;
73980;SDS011;62348;51.412;5.436;2022-07-30T13:48:29;4.18;;;2.60;;
73980;SDS011;62348;51.412;5.436;2022-07-30T13:50:55;6.32;;;2.70;;
73980;SDS011;62348;51.412;5.436;2022-07-30T13:53:21;3.97;;;2.35;;
73980;SDS011;62348;51.412;5.436;2022-07-30T13:55:46;4.75;;;2.20;;
73980;SDS011;62348;51.412;5.436;2022-07-30T13:58:12;5.18;;;2.30;;
73980;SDS011;62348;51.412;5.436;2022-07-30T14:00:38;7.53;;;2.78;;
73980;SDS011;62348;51.412;5.436;2022-07-30T14:03:05;4.80;;;2.28;;
73980;SDS011;62348;51.412;5.436;2022-07-30T14:05:32;6.78;;;2.50;;
73980;SDS011;62348;51.412;5.436;2022-07-30T14:07:59;4.53;;;2.10;;
73980;SDS011;62348;51.412;5.436;2022-07-30T14:10:25;4.25;;;1.80;;
73980;SDS011;62348;51.412;5.436;2022-07-30T14:12:51;6.68;;;2.38;;
73980;SDS011;62348;51.412;5.436;2022-07-30T14:15:20;4.35;;;2.00;;
73980;SDS011;62348;51.412;5.436;2022-07-30T14:17:47;6.28;;;2.90;;
73980;SDS011;62348;51.412;5.436;2022-07-30T14:20:12;4.10;;;1.85;;
73980;SDS011;62348;51.412;5.436;2022-07-30T14:22:38;3.65;;;1.85;;
73980;SDS011;62348;51.412;5.436;2022-07-30T14:25:03;5.90;;;2.15;;
73980;SDS011;62348;51.412;5.436;2022-07-30T14:27:29;5.35;;;2.05;;
73980;SDS011;62348;51.412;5.436;2022-07-30T14:29:55;4.80;;;2.10;;
73980;SDS011;62348;51.412;5.436;2022-07-30T14:32:20;5.15;;;2.30;;
73980;SDS011;62348;51.412;5.436;2022-07-30T14:34:45;3.58;;;2.10;;
73980;SDS011;62348;51.412;5.436;2022-07-30T14:37:11;4.28;;;1.55;;
73980;SDS011;62348;51.412;5.436;2022-07-30T14:39:36;4.10;;;1.60;;
73980;SDS011;62348;51.412;5.436;2022-07-30T14:42:02;5.70;;;2.05;;
73980;SDS011;62348;51.412;5.436;2022-07-30T14:44:27;3.65;;;1.80;;
73980;SDS011;62348;51.412;5.436;2022-07-30T14:46:52;5.00;;;2.53;;
73980;SDS011;62348;51.412;5.436;2022-07-30T14:49:19;6.70;;;2.58;;
73980;SDS011;62348;51.412;5.436;2022-07-30T14:51:45;4.95;;;2.35;;
73980;SDS011;62348;51.412;5.436;2022-07-30T14:54:10;4.53;;;2.00;;
73980;SDS011;62348;51.412;5.436;2022-07-30T14:56:36;4.97;;;2.00;;
73980;SDS011;62348;51.412;5.436;2022-07-30T14:59:02;5.32;;;2.00;;
73980;SDS011;62348;51.412;5.436;2022-07-30T15:01:28;6.95;;;2.08;;
73980;SDS011;62348;51.412;5.436;2022-07-30T15:03:53;2.22;;;1.70;;
73980;SDS011;62348;51.412;5.436;2022-07-30T15:06:19;2.50;;;1.70;;
73980;SDS011;62348;51.412;5.436;2022-07-30T15:08:44;4.53;;;2.08;;
73980;SDS011;62348;51.412;5.436;2022-07-30T15:11:10;4.13;;;2.10;;
73980;SDS011;62348;51.412;5.436;2022-07-30T15:13:35;4.50;;;1.70;;
73980;SDS011;62348;51.412;5.436;2022-07-30T15:16:01;3.05;;;1.75;;
73980;SDS011;62348;51.412;5.436;2022-07-30T15:18:27;2.75;;;1.90;;
73980;SDS011;62348;51.412;5.436;2022-07-30T15:20:52;2.92;;;2.00;;